Time;durP1;ratioP1;P1;durP2;ratioP2;P2;SDS_P1;SDS_P2;PMS_P1;PMS_P2;Temp;Humidity;BMP_temperature;BMP_pressure;BME280_temperature;BME280_humidity;BME280_pressure;Samples;Min_cycle;Max_cycle;Signal;HPM_P1;HPM_P2
2023/01/24 10:26:18;;;;;;;14.20;7.07;;;3.30;99.90;;;;;;3691431;23;20275;-75
2023/01/24 10:28:48;;;;;;;13.23;6.50;;;3.40;99.90;;;;;;4955327;28;20208;-75
2023/01/24 10:31:18;;;;;;;12.70;6.93;;;3.40;99.90;;;;;;4956196;29;20216;-74
2023/01/24 10:33:47;;;;;;;11.60;6.33;;;3.40;99.90;;;;;;4946122;28;20239;-86
2023/01/24 10:36:20;;;;;;;16.90;7.63;;;3.40;99.90;;;;;;4955128;29;20208;-75
2023/01/24 10:38:47;;;;;;;10.40;6.03;;;3.30;99.90;;;;;;4952536;28;20707;-74
2023/01/24 10:41:20;;;;;;;13.00;7.13;;;3.20;99.90;;;;;;4936446;29;20680;-74
2023/01/24 10:43:53;;;;;;;12.97;6.53;;;3.40;99.90;;;;;;4948487;29;20232;-73
2023/01/24 10:46:43;;;;;;;14.10;7.07;;;3.40;99.90;;;;;;4956173;29;20368;-74
2023/01/24 10:49:17;;;;;;;20.60;6.63;;;3.40;99.90;;;;;;4953399;29;20216;-73
2023/01/24 10:51:44;;;;;;;9.30;5.17;;;3.40;99.90;;;;;;4951908;28;20262;-76
2023/01/24 10:54:22;;;;;;;12.03;6.20;;;3.50;99.90;;;;;;4940052;29;20243;-79
2023/01/24 10:56:50;;;;;;;10.97;6.30;;;3.50;99.90;;;;;;4937108;29;20215;-75
2023/01/24 10:59:17;;;;;;;12.70;7.13;;;3.60;99.90;;;;;;4936924;29;20209;-75
2023/01/24 11:01:48;;;;;;;15.73;6.63;;;3.60;99.90;;;;;;4936492;29;20209;-74
2023/01/24 11:04:20;;;;;;;11.37;6.80;;;3.80;99.90;;;;;;4935948;29;20347;-79
2023/01/24 11:06:48;;;;;;;13.53;7.20;;;3.90;99.90;;;;;;4937085;29;20215;-75
2023/01/24 11:09:19;;;;;;;12.10;6.20;;;3.80;99.90;;;;;;4936449;29;20213;-73
2023/01/24 11:11:49;;;;;;;10.87;6.17;;;3.80;99.90;;;;;;4935240;29;20615;-75
2023/01/24 11:14:24;;;;;;;11.30;6.70;;;3.60;99.90;;;;;;4936271;29;20235;-74
2023/01/24 11:16:53;;;;;;;12.03;6.47;;;3.70;99.90;;;;;;4935474;29;20234;-75
2023/01/24 11:19:28;;;;;;;10.93;6.17;;;3.70;99.90;;;;;;4935238;29;20205;-75
2023/01/24 11:21:57;;;;;;;11.13;6.30;;;3.70;99.90;;;;;;4935065;29;20224;-75
2023/01/24 11:24:24;;;;;;;11.83;6.37;;;3.70;99.90;;;;;;4935306;29;20696;-75
2023/01/24 11:26:57;;;;;;;12.30;6.53;;;3.60;99.90;;;;;;4935691;29;20216;-74
2023/01/24 11:29:25;;;;;;;11.27;6.03;;;3.60;99.90;;;;;;4955169;29;20775;-75
2023/01/24 11:31:55;;;;;;;12.23;6.87;;;3.80;99.90;;;;;;4955047;29;20208;-76
2023/01/24 11:34:46;;;;;;;11.13;6.50;;;3.70;99.90;;;;;;4940852;29;20714;-75
2023/01/24 11:37:40;;;;;;;12.60;6.43;;;3.60;99.90;;;;;;4936284;29;20213;-75
2023/01/24 11:40:20;;;;;;;10.43;5.97;;;3.40;99.90;;;;;;4934890;29;20212;-74
2023/01/24 11:42:58;;;;;;;13.90;6.90;;;3.30;99.90;;;;;;4935510;29;20248;-75
2023/01/24 11:45:40;;;;;;;10.20;5.43;;;3.30;99.90;;;;;;4935856;29;20668;-74
2023/01/24 11:48:11;;;;;;;10.87;6.13;;;3.30;99.90;;;;;;4935848;29;20204;-74
2023/01/24 11:50:46;;;;;;;13.97;6.00;;;3.30;99.90;;;;;;4935537;29;20259;-74
2023/01/24 11:53:39;;;;;;;12.07;6.27;;;3.30;99.90;;;;;;4935000;29;20228;-74
2023/01/24 11:56:16;;;;;;;11.10;5.90;;;3.30;99.90;;;;;;4933557;29;20264;-75
2023/01/24 11:58:57;;;;;;;13.10;6.33;;;3.30;99.90;;;;;;4935732;29;20295;-75
2023/01/24 12:01:33;;;;;;;11.37;6.57;;;3.40;99.90;;;;;;4935193;29;20564;-77
2023/01/24 12:04:19;;;;;;;13.73;7.03;;;3.40;99.90;;;;;;4942901;29;20235;-74
2023/01/24 12:06:52;;;;;;;16.40;6.40;;;3.40;99.90;;;;;;4955125;29;20208;-74
2023/01/24 12:09:22;;;;;;;14.67;7.17;;;3.40;99.90;;;;;;4955561;29;20212;-73
2023/01/24 12:11:58;;;;;;;15.07;7.80;;;3.50;99.90;;;;;;4955476;29;20302;-74
2023/01/24 12:14:52;;;;;;;16.67;7.63;;;3.50;99.90;;;;;;4955773;29;20238;-73
2023/01/24 12:17:41;;;;;;;15.83;7.93;;;3.50;99.90;;;;;;4955737;29;20204;-73
2023/01/24 12:20:27;;;;;;;13.47;6.77;;;3.70;99.90;;;;;;4943715;28;20642;-75
2023/01/24 12:22:58;;;;;;;12.40;6.50;;;3.80;99.90;;;;;;4955737;29;20228;-75
2023/01/24 12:25:30;;;;;;;16.10;6.60;;;3.70;99.90;;;;;;4955984;29;20218;-74
2023/01/24 12:28:00;;;;;;;13.27;7.20;;;3.60;99.90;;;;;;4955596;28;20215;-74
2023/01/24 12:30:32;;;;;;;13.23;6.87;;;3.50;99.90;;;;;;4955553;29;20212;-74
2023/01/24 12:33:09;;;;;;;15.53;8.03;;;3.40;99.90;;;;;;4955092;29;20254;-75
2023/01/24 12:35:41;;;;;;;14.80;7.40;;;3.40;99.90;;;;;;4955507;29;20239;-75
2023/01/24 12:38:17;;;;;;;16.77;7.30;;;3.40;99.90;;;;;;4954693;28;20548;-74
2023/01/24 12:40:50;;;;;;;14.17;7.70;;;3.50;99.90;;;;;;4955402;29;20207;-75
2023/01/24 12:43:25;;;;;;;10.33;6.47;;;3.60;99.90;;;;;;4955124;29;20239;-74
2023/01/24 12:46:01;;;;;;;14.23;6.97;;;3.40;99.90;;;;;;4955751;29;20234;-75
2023/01/24 12:48:40;;;;;;;13.67;7.00;;;3.30;99.90;;;;;;4955479;29;20208;-74
2023/01/24 12:51:16;;;;;;;14.87;7.63;;;3.30;99.90;;;;;;4955243;29;20219;-74
2023/01/24 12:53:55;;;;;;;12.67;6.90;;;3.30;99.90;;;;;;4954649;29;20586;-75
2023/01/24 12:56:28;;;;;;;13.07;7.67;;;3.30;99.90;;;;;;4951138;29;20231;-74
2023/01/24 12:58:55;;;;;;;17.50;7.60;;;3.30;99.90;;;;;;4948835;29;20215;-74
2023/01/24 13:01:59;;;;;;;14.57;7.40;;;3.30;99.90;;;;;;4954816;29;20208;-74
2023/01/24 13:04:42;;;;;;;15.93;7.77;;;3.30;99.90;;;;;;4937793;29;20711;-73
2023/01/24 13:07:19;;;;;;;13.57;6.47;;;3.40;99.90;;;;;;4936267;29;20624;-74
2023/01/24 13:09:55;;;;;;;11.70;6.40;;;3.40;99.90;;;;;;4936315;29;20212;-74
2023/01/24 13:12:25;;;;;;;9.27;5.03;;;3.30;99.90;;;;;;4936110;29;20212;-74
2023/01/24 13:14:55;;;;;;;14.60;7.30;;;3.30;99.90;;;;;;4936120;29;20240;-74
2023/01/24 13:17:38;;;;;;;15.60;8.03;;;3.30;99.90;;;;;;4936057;29;20217;-74
2023/01/24 13:20:22;;;;;;;17.47;8.07;;;3.40;99.90;;;;;;4935929;29;20215;-74
2023/01/24 13:23:05;;;;;;;14.23;7.67;;;3.40;99.90;;;;;;4935742;29;20233;-74
2023/01/24 13:25:53;;;;;;;15.87;7.63;;;3.30;99.90;;;;;;4936055;29;20222;-74
2023/01/24 13:28:29;;;;;;;14.83;7.27;;;3.30;99.90;;;;;;4936000;29;20568;-74
2023/01/24 13:31:09;;;;;;;16.07;7.80;;;3.30;99.90;;;;;;4936189;29;20212;-74
2023/01/24 13:33:46;;;;;;;15.13;7.77;;;3.40;99.90;;;;;;4936184;29;20232;-75
2023/01/24 13:36:18;;;;;;;12.80;6.50;;;3.40;99.90;;;;;;4936440;29;20236;-76
2023/01/24 13:38:46;;;;;;;14.77;7.60;;;3.40;99.90;;;;;;4953734;29;20224;-75
2023/01/24 13:41:17;;;;;;;14.67;7.70;;;3.30;99.90;;;;;;4947954;29;20201;-75
2023/01/24 13:43:58;;;;;;;12.20;6.90;;;3.30;99.90;;;;;;4935753;29;20225;-74
2023/01/24 13:47:04;;;;;;;16.03;8.83;;;3.20;99.90;;;;;;4935463;29;20209;-75
2023/01/24 13:49:40;;;;;;;17.73;8.73;;;3.30;99.90;;;;;;4935266;29;20216;-74
2023/01/24 13:52:40;;;;;;;16.03;9.00;;;3.30;99.90;;;;;;4939243;29;20216;-78
2023/01/24 13:55:40;;;;;;;16.80;8.10;;;3.50;99.90;;;;;;4938581;29;20323;-75
2023/01/24 13:58:20;;;;;;;16.67;8.43;;;3.40;99.90;;;;;;4922391;29;20219;-75
2023/01/24 14:00:51;;;;;;;17.00;8.73;;;3.40;99.90;;;;;;4939086;29;20205;-74
2023/01/24 14:03:21;;;;;;;14.33;7.67;;;3.50;99.90;;;;;;4938846;29;20389;-72
2023/01/24 14:05:51;;;;;;;14.97;7.97;;;3.70;99.90;;;;;;4938238;29;20229;-75
2023/01/24 14:08:41;;;;;;;16.53;8.20;;;3.70;99.90;;;;;;4938948;29;20232;-74
2023/01/24 14:11:47;;;;;;;16.23;7.63;;;3.70;99.90;;;;;;4938549;29;20216;-73
2023/01/24 14:15:02;;;;;;;14.57;7.97;;;3.60;99.90;;;;;;4938467;29;20232;-73
2023/01/24 14:17:48;;;;;;;13.70;7.57;;;3.70;99.90;;;;;;4933568;29;20212;-73
2023/01/24 14:20:23;;;;;;;18.47;9.00;;;3.80;99.90;;;;;;4938636;29;20240;-75
2023/01/24 14:22:54;;;;;;;17.33;8.37;;;3.90;99.90;;;;;;4938156;29;20225;-73
2023/01/24 14:25:49;;;;;;;15.20;8.23;;;3.80;99.90;;;;;;4938188;29;20216;-72
2023/01/24 14:28:21;;;;;;;13.00;7.87;;;3.80;99.90;;;;;;4938134;29;20619;-72
2023/01/24 14:30:51;;;;;;;14.63;8.03;;;3.80;99.90;;;;;;4950517;29;20659;-72
2023/01/24 14:33:38;;;;;;;14.47;7.93;;;3.70;99.90;;;;;;4937708;29;20240;-72
2023/01/24 14:36:24;;;;;;;16.60;8.53;;;3.50;99.90;;;;;;4938342;29;20594;-73
2023/01/24 14:39:14;;;;;;;16.03;9.13;;;3.60;99.90;;;;;;4938946;29;20624;-72
2023/01/24 14:41:42;;;;;;;14.07;7.43;;;3.70;99.90;;;;;;4938686;29;20247;-72
2023/01/24 14:44:17;;;;;;;18.30;8.30;;;3.80;99.90;;;;;;4938334;29;20235;-72
2023/01/24 14:46:53;;;;;;;17.73;8.23;;;3.80;99.90;;;;;;4938609;29;20208;-72
2023/01/24 14:49:27;;;;;;;16.27;8.63;;;3.80;99.90;;;;;;4938559;29;20215;-72
2023/01/24 14:51:54;;;;;;;13.67;7.47;;;3.70;99.90;;;;;;4938531;29;20238;-72
2023/01/24 14:54:22;;;;;;;13.77;8.07;;;3.40;99.90;;;;;;4937959;29;20225;-75
2023/01/24 14:56:51;;;;;;;18.23;8.93;;;3.30;99.90;;;;;;4938038;29;20236;-73
2023/01/24 14:59:18;;;;;;;14.27;7.63;;;3.20;99.90;;;;;;4937447;29;20660;-73
2023/01/24 15:01:46;;;;;;;15.90;8.60;;;3.20;99.90;;;;;;4937324;29;20205;-73
2023/01/24 15:04:28;;;;;;;18.53;8.63;;;3.40;99.90;;;;;;4937432;29;20235;-75
2023/01/24 15:07:13;;;;;;;16.63;8.47;;;3.40;99.90;;;;;;4937640;29;20219;-74
2023/01/24 15:09:40;;;;;;;17.20;8.60;;;3.40;99.90;;;;;;4937810;29;20209;-73
2023/01/24 15:12:26;;;;;;;15.33;8.87;;;3.50;99.90;;;;;;4937494;29;20208;-74
2023/01/24 15:14:55;;;;;;;19.20;9.10;;;3.50;99.90;;;;;;4937632;29;20668;-77
2023/01/24 15:17:25;;;;;;;17.23;8.57;;;3.30;99.90;;;;;;4937849;29;20224;-73
2023/01/24 15:19:56;;;;;;;15.17;7.90;;;3.30;99.90;;;;;;4932982;29;20303;-73
2023/01/24 15:22:24;;;;;;;18.37;9.20;;;3.20;99.90;;;;;;4936037;29;20213;-73
2023/01/24 15:24:53;;;;;;;12.27;7.27;;;3.30;99.90;;;;;;4936554;29;20201;-73
2023/01/24 15:27:45;;;;;;;15.43;7.87;;;3.20;99.90;;;;;;4935200;29;20223;-72
2023/01/24 15:30:18;;;;;;;15.60;8.17;;;3.30;99.90;;;;;;4930035;29;20212;-77
2023/01/24 15:32:48;;;;;;;14.00;7.73;;;3.40;99.90;;;;;;4954360;29;20734;-72
2023/01/24 15:35:33;;;;;;;14.70;8.47;;;3.40;99.90;;;;;;4946091;29;20242;-72
2023/01/24 15:38:14;;;;;;;14.50;7.80;;;3.50;99.90;;;;;;4934944;29;20209;-73
2023/01/24 15:40:48;;;;;;;16.80;8.43;;;3.70;99.90;;;;;;4934984;29;20217;-71
2023/01/24 15:48:58;;;;;;;16.60;8.17;;;3.50;99.90;;;;;;4934821;29;20695;-73
2023/01/24 15:51:31;;;;;;;14.20;7.80;;;3.30;99.90;;;;;;4943729;29;20212;-73
2023/01/24 15:53:58;;;;;;;15.70;8.43;;;3.20;99.90;;;;;;4940773;29;20229;-72
2023/01/24 15:56:25;;;;;;;15.47;8.10;;;3.10;99.90;;;;;;4934270;29;20267;-74
2023/01/24 15:58:53;;;;;;;13.70;8.23;;;3.10;99.90;;;;;;4935145;29;20213;-75
2023/01/24 16:01:20;;;;;;;16.50;8.97;;;3.20;99.90;;;;;;4935611;29;20303;-76
2023/01/24 16:03:47;;;;;;;14.67;8.27;;;3.30;99.90;;;;;;4935371;29;20326;-73
2023/01/24 16:06:14;;;;;;;15.53;8.40;;;3.30;99.90;;;;;;4935164;29;20208;-72
2023/01/24 16:08:41;;;;;;;14.80;7.67;;;3.30;99.90;;;;;;4935614;29;20217;-72
2023/01/24 16:11:09;;;;;;;16.73;8.07;;;3.50;99.90;;;;;;4939653;28;20214;-72
2023/01/24 16:13:39;;;;;;;13.57;7.63;;;3.40;99.90;;;;;;4955152;29;20232;-72
2023/01/24 16:16:11;;;;;;;15.67;8.50;;;3.40;99.90;;;;;;4941571;29;20240;-73
2023/01/24 16:18:38;;;;;;;18.00;8.47;;;3.30;99.90;;;;;;4934731;29;20209;-76
2023/01/24 16:21:05;;;;;;;14.53;8.20;;;3.10;99.90;;;;;;4935012;28;20212;-74
2023/01/24 16:23:32;;;;;;;13.77;7.90;;;3.30;99.90;;;;;;4934989;29;20229;-74
2023/01/24 16:25:59;;;;;;;14.10;7.20;;;3.30;99.90;;;;;;4934838;29;20228;-77
2023/01/24 16:28:27;;;;;;;13.33;7.67;;;3.20;99.90;;;;;;4935324;29;20215;-74
2023/01/24 16:31:00;;;;;;;14.80;8.13;;;3.20;99.90;;;;;;4949629;29;20730;-72
2023/01/24 16:33:28;;;;;;;17.20;7.80;;;3.30;99.90;;;;;;4953791;29;20223;-75
2023/01/24 16:35:55;;;;;;;16.33;7.63;;;3.00;99.90;;;;;;4940726;29;20228;-73
2023/01/24 16:38:23;;;;;;;12.37;6.87;;;3.00;99.90;;;;;;4934800;29;20209;-79
2023/01/24 16:40:50;;;;;;;13.83;7.43;;;3.10;99.90;;;;;;4934895;29;20205;-73
2023/01/24 16:43:19;;;;;;;14.13;7.27;;;3.00;99.90;;;;;;4934059;29;20224;-75
2023/01/24 16:45:48;;;;;;;15.00;7.40;;;2.90;99.90;;;;;;4935431;29;20220;-70
2023/01/24 16:48:15;;;;;;;15.00;7.77;;;2.90;99.90;;;;;;4934329;29;20378;-71
2023/01/24 16:50:45;;;;;;;12.80;7.00;;;2.90;99.90;;;;;;4934752;29;20217;-71
2023/01/24 16:53:13;;;;;;;14.30;7.00;;;2.90;99.90;;;;;;4934742;29;20229;-71
2023/01/24 16:55:40;;;;;;;12.07;5.93;;;3.00;99.90;;;;;;4934388;29;20254;-71
2023/01/24 16:58:07;;;;;;;11.43;6.27;;;3.00;99.90;;;;;;4934632;29;20240;-73
2023/01/24 17:00:34;;;;;;;17.20;6.87;;;2.90;99.90;;;;;;4934767;29;20208;-71
2023/01/24 17:03:02;;;;;;;11.07;5.80;;;2.80;99.90;;;;;;4934214;29;20700;-72
2023/01/24 17:05:30;;;;;;;15.07;6.00;;;2.80;99.90;;;;;;4934268;29;20205;-73
2023/01/24 17:07:58;;;;;;;13.00;6.70;;;2.90;99.90;;;;;;4934210;29;20232;-74
2023/01/24 17:10:27;;;;;;;11.67;6.10;;;3.00;99.90;;;;;;4933389;29;20702;-72
2023/01/24 17:12:54;;;;;;;10.63;6.27;;;2.90;99.90;;;;;;4934374;29;20320;-72
2023/01/24 17:15:20;;;;;;;13.10;6.57;;;2.80;99.90;;;;;;4934961;29;20212;-72
2023/01/24 17:17:47;;;;;;;11.07;6.70;;;2.70;99.90;;;;;;4933855;29;20286;-72
2023/01/24 17:20:14;;;;;;;14.50;6.70;;;2.70;99.90;;;;;;4933985;29;20212;-73
2023/01/24 17:22:41;;;;;;;15.33;6.90;;;2.70;99.90;;;;;;4933839;29;20245;-70
2023/01/24 17:25:10;;;;;;;11.83;6.00;;;2.70;99.90;;;;;;4933924;29;20213;-72
2023/01/24 17:27:37;;;;;;;9.27;6.03;;;2.70;99.90;;;;;;4934194;29;20220;-73
2023/01/24 17:30:05;;;;;;;13.87;6.97;;;2.80;99.90;;;;;;4941545;29;20575;-71
2023/01/24 17:32:33;;;;;;;12.50;6.30;;;2.80;99.90;;;;;;4952617;28;20689;-72
2023/01/24 17:34:59;;;;;;;13.50;6.47;;;2.80;99.90;;;;;;4948209;29;20731;-71
2023/01/24 17:37:26;;;;;;;12.03;5.83;;;2.70;99.90;;;;;;4935264;29;20240;-73
2023/01/24 17:39:53;;;;;;;13.43;6.70;;;2.70;99.90;;;;;;4935310;29;20573;-72
2023/01/24 17:42:22;;;;;;;13.00;6.40;;;2.70;99.90;;;;;;4934835;29;20220;-74
2023/01/24 17:44:48;;;;;;;11.60;5.93;;;2.50;99.90;;;;;;4935347;29;20662;-74
2023/01/24 17:47:15;;;;;;;19.13;6.83;;;2.50;99.90;;;;;;4935042;29;20656;-73
2023/01/24 17:49:42;;;;;;;12.37;5.90;;;2.50;99.90;;;;;;4934785;29;20218;-74
2023/01/24 17:52:09;;;;;;;11.30;6.73;;;2.60;99.90;;;;;;4934667;29;20676;-73
2023/01/24 17:54:36;;;;;;;14.00;6.57;;;2.50;99.90;;;;;;4934685;29;20239;-74
2023/01/24 17:57:02;;;;;;;13.67;6.90;;;2.50;99.90;;;;;;4942366;29;20232;-72
2023/01/24 17:59:31;;;;;;;15.90;7.27;;;2.50;99.90;;;;;;4954207;29;20211;-74
2023/01/24 18:01:57;;;;;;;13.57;7.30;;;2.60;99.90;;;;;;4954126;28;20210;-72
2023/01/24 18:04:24;;;;;;;12.67;7.33;;;2.60;99.90;;;;;;4953108;29;20249;-72
2023/01/24 18:06:51;;;;;;;13.80;7.63;;;2.60;99.90;;;;;;4934876;29;20220;-71
2023/01/24 18:09:18;;;;;;;14.90;7.87;;;2.60;99.90;;;;;;4932663;29;20225;-72
2023/01/24 18:11:45;;;;;;;15.40;7.60;;;2.70;99.90;;;;;;4937968;29;20292;-71
2023/01/24 18:14:12;;;;;;;15.33;6.70;;;2.70;99.90;;;;;;4930542;29;20235;-71
2023/01/24 18:16:40;;;;;;;16.17;7.27;;;2.90;99.90;;;;;;4948070;29;20230;-71
2023/01/24 18:19:07;;;;;;;14.60;7.83;;;3.00;99.90;;;;;;4949618;29;20216;-72
2023/01/24 18:21:34;;;;;;;20.10;8.70;;;3.00;99.90;;;;;;4933466;29;20209;-71
2023/01/24 18:24:02;;;;;;;14.87;7.93;;;2.90;99.90;;;;;;4933543;29;20592;-72
2023/01/24 18:26:30;;;;;;;13.80;7.20;;;2.80;99.90;;;;;;4933500;29;20587;-72
2023/01/24 18:28:59;;;;;;;15.33;7.90;;;2.90;99.90;;;;;;4946548;29;20204;-72
2023/01/24 18:31:26;;;;;;;15.23;8.77;;;2.90;99.90;;;;;;4933700;29;20215;-71
2023/01/24 18:33:58;;;;;;;18.20;8.47;;;2.80;99.90;;;;;;4934918;29;20225;-72
2023/01/24 18:36:25;;;;;;;13.40;7.00;;;3.00;99.90;;;;;;4937590;29;20295;-72
2023/01/24 18:38:52;;;;;;;13.13;7.77;;;2.80;99.90;;;;;;4945739;28;20215;-72
2023/01/24 18:41:20;;;;;;;19.50;7.70;;;2.80;99.90;;;;;;4938192;29;20215;-71
2023/01/24 18:43:47;;;;;;;15.33;8.07;;;2.80;99.90;;;;;;4938321;29;20533;-72
2023/01/24 18:46:14;;;;;;;14.47;7.53;;;2.80;99.90;;;;;;4938546;29;20216;-71
2023/01/24 18:48:43;;;;;;;13.33;7.20;;;2.80;99.90;;;;;;4938381;29;20260;-71
2023/01/24 18:51:14;;;;;;;17.37;9.00;;;2.60;99.90;;;;;;4938192;29;20244;-72
2023/01/24 18:53:41;;;;;;;13.33;7.90;;;2.40;99.90;;;;;;4938130;29;20703;-72
2023/01/24 18:56:08;;;;;;;15.17;7.90;;;2.60;99.90;;;;;;4938119;29;20663;-72
2023/01/24 18:58:37;;;;;;;17.07;8.13;;;2.60;99.90;;;;;;4937960;29;20209;-71
2023/01/24 19:01:10;;;;;;;16.80;8.23;;;2.50;99.90;;;;;;4937823;29;20231;-72
2023/01/24 19:03:37;;;;;;;15.37;7.37;;;2.60;99.90;;;;;;4938312;29;20711;-71
2023/01/24 19:06:04;;;;;;;19.47;8.77;;;2.70;99.90;;;;;;4957120;29;20204;-71
2023/01/24 19:08:33;;;;;;;16.57;9.13;;;2.50;99.90;;;;;;4939733;29;20284;-71
2023/01/24 19:10:59;;;;;;;16.30;8.33;;;2.70;99.90;;;;;;4937701;29;20572;-71
2023/01/24 19:13:27;;;;;;;14.80;8.37;;;2.60;99.90;;;;;;4938021;29;20251;-72
2023/01/24 19:16:01;;;;;;;16.50;8.67;;;2.60;99.90;;;;;;4938091;29;20209;-71
2023/01/24 19:18:28;;;;;;;19.83;9.07;;;2.70;99.90;;;;;;4937873;29;20216;-71
2023/01/24 19:20:55;;;;;;;21.23;9.47;;;2.70;99.90;;;;;;4937814;29;20576;-72
2023/01/24 19:23:22;;;;;;;16.27;8.73;;;2.70;99.90;;;;;;4937879;29;20315;-72
2023/01/24 19:25:50;;;;;;;14.20;7.97;;;2.60;99.90;;;;;;4938103;29;20220;-72
2023/01/24 19:28:17;;;;;;;17.03;8.63;;;2.60;99.90;;;;;;4937487;29;20238;-72
2023/01/24 19:30:44;;;;;;;15.80;7.93;;;2.50;99.90;;;;;;4937840;29;20212;-72
2023/01/24 19:33:11;;;;;;;18.70;8.30;;;2.50;99.90;;;;;;4937669;29;20708;-72
2023/01/24 19:35:37;;;;;;;17.30;8.90;;;2.60;99.90;;;;;;4937819;29;20208;-72
2023/01/24 19:38:04;;;;;;;14.53;7.43;;;2.50;99.90;;;;;;4937805;29;20239;-72
2023/01/24 19:40:31;;;;;;;17.80;9.23;;;2.60;99.90;;;;;;4937434;29;20216;-72
2023/01/24 19:42:59;;;;;;;16.07;8.77;;;2.60;99.90;;;;;;4937428;29;20233;-72
2023/01/24 19:45:26;;;;;;;16.07;8.73;;;2.60;99.90;;;;;;4937360;29;20244;-72
2023/01/24 19:47:53;;;;;;;15.97;9.07;;;2.60;99.90;;;;;;4937093;29;20671;-72
2023/01/24 19:50:20;;;;;;;17.37;9.07;;;2.60;99.90;;;;;;4937424;29;20213;-72
2023/01/24 19:52:48;;;;;;;17.90;9.60;;;2.60;99.90;;;;;;4937203;29;20480;-72
2023/01/24 19:55:15;;;;;;;18.93;9.10;;;2.80;99.90;;;;;;4936848;29;20220;-72
2023/01/24 19:57:42;;;;;;;15.70;8.53;;;2.80;99.90;;;;;;4936161;29;20240;-72
2023/01/24 20:00:12;;;;;;;14.83;7.77;;;2.60;99.90;;;;;;4936513;29;20227;-72
2023/01/24 20:02:38;;;;;;;17.50;8.57;;;2.60;99.90;;;;;;4936417;29;20239;-72
2023/01/24 20:05:06;;;;;;;14.67;8.53;;;2.50;99.90;;;;;;4936938;29;20562;-72
2023/01/24 20:07:32;;;;;;;17.40;9.77;;;2.60;99.90;;;;;;4937252;29;20204;-72
2023/01/24 20:09:59;;;;;;;18.27;9.30;;;2.70;99.90;;;;;;4937037;29;20215;-72
2023/01/24 20:12:26;;;;;;;18.67;9.27;;;2.70;99.90;;;;;;4936573;29;20219;-72
2023/01/24 20:14:53;;;;;;;18.53;9.13;;;2.70;99.90;;;;;;4936663;29;20208;-72
2023/01/24 20:17:21;;;;;;;17.53;8.87;;;2.60;99.90;;;;;;4936334;29;20232;-72
2023/01/24 20:19:48;;;;;;;16.57;9.10;;;2.50;99.90;;;;;;4936940;29;20217;-72
2023/01/24 20:22:15;;;;;;;16.67;9.37;;;2.60;99.90;;;;;;4936604;29;20215;-72
2023/01/24 20:24:42;;;;;;;16.70;8.87;;;2.60;99.90;;;;;;4936662;29;20235;-72
2023/01/24 20:27:08;;;;;;;20.97;9.13;;;2.50;99.90;;;;;;4936520;29;20579;-72
2023/01/24 20:29:35;;;;;;;18.53;9.37;;;2.40;99.90;;;;;;4936620;29;20208;-72
2023/01/24 20:32:02;;;;;;;16.13;8.97;;;2.40;99.90;;;;;;4936468;29;20205;-72
2023/01/24 20:34:30;;;;;;;18.87;9.00;;;2.40;99.90;;;;;;4936802;29;20232;-72
2023/01/24 20:36:57;;;;;;;16.17;8.57;;;2.40;99.90;;;;;;4936351;29;20718;-72
2023/01/24 20:39:24;;;;;;;16.23;8.80;;;2.50;99.90;;;;;;4936183;29;20213;-72
2023/01/24 20:41:51;;;;;;;18.40;8.83;;;2.40;99.90;;;;;;4936254;29;20370;-72
2023/01/24 20:44:18;;;;;;;20.30;9.57;;;2.50;99.90;;;;;;4935998;29;20251;-72
2023/01/24 20:46:45;;;;;;;19.57;9.00;;;2.60;99.90;;;;;;4936019;29;20209;-72
2023/01/24 20:49:12;;;;;;;18.83;8.50;;;2.70;99.90;;;;;;4936286;29;20212;-72
2023/01/24 20:51:40;;;;;;;18.90;9.30;;;2.70;99.90;;;;;;4936439;29;20215;-72
2023/01/24 20:54:07;;;;;;;25.53;7.93;;;2.60;99.90;;;;;;4936034;29;20229;-72
2023/01/24 20:56:34;;;;;;;17.17;9.47;;;2.40;99.90;;;;;;4935933;29;20209;-72
2023/01/24 20:59:03;;;;;;;15.70;8.47;;;2.30;99.90;;;;;;4935102;29;20208;-72
2023/01/24 21:01:30;;;;;;;15.90;9.00;;;2.50;99.90;;;;;;4935944;29;20251;-72
2023/01/24 21:04:02;;;;;;;20.17;9.60;;;2.70;99.90;;;;;;4935972;29;20233;-72
2023/01/24 21:06:29;;;;;;;19.23;8.83;;;2.70;99.90;;;;;;4935862;29;20215;-72
2023/01/24 21:08:58;;;;;;;18.43;9.77;;;2.70;99.90;;;;;;4935815;29;20252;-72
2023/01/24 21:11:26;;;;;;;14.87;8.43;;;2.60;99.90;;;;;;4935708;29;20643;-72
2023/01/24 21:13:55;;;;;;;17.73;9.77;;;2.70;99.90;;;;;;4935674;29;20283;-72
2023/01/24 21:16:23;;;;;;;19.37;8.77;;;2.60;99.90;;;;;;4935810;29;20212;-72
2023/01/24 21:18:51;;;;;;;15.57;8.87;;;2.80;99.90;;;;;;4935730;29;20252;-70
2023/01/24 21:21:20;;;;;;;16.97;8.83;;;2.50;99.90;;;;;;4936056;29;20548;-71
2023/01/24 21:23:47;;;;;;;17.37;8.23;;;2.40;99.90;;;;;;4935668;29;20244;-70
2023/01/24 21:26:16;;;;;;;16.10;8.30;;;2.50;99.90;;;;;;4936693;29;20648;-71
2023/01/24 21:28:44;;;;;;;16.80;8.93;;;2.70;99.90;;;;;;4936215;29;20244;-71
2023/01/24 21:31:13;;;;;;;19.23;8.90;;;2.90;99.90;;;;;;4935609;29;20734;-71
2023/01/24 21:33:40;;;;;;;14.63;8.27;;;2.80;99.90;;;;;;4935596;29;20271;-71
2023/01/24 21:36:08;;;;;;;16.87;8.60;;;2.70;99.90;;;;;;4935450;29;20209;-71
2023/01/24 21:38:36;;;;;;;15.17;8.30;;;2.50;99.90;;;;;;4935322;29;20287;-71
2023/01/24 21:43:51;;;;;;;18.97;9.37;;;2.40;99.90;;;;;;4935249;29;20232;-72
2023/01/24 21:46:18;;;;;;;15.53;8.03;;;2.50;99.90;;;;;;4935263;29;20268;-72
2023/01/24 21:51:30;;;;;;;19.90;8.63;;;2.70;99.90;;;;;;4935173;29;20212;-71
2023/01/24 21:54:05;;;;;;;17.27;8.90;;;2.70;99.90;;;;;;4935386;29;20703;-71
2023/01/24 21:59:20;;;;;;;17.03;8.23;;;2.40;99.90;;;;;;4934919;29;20216;-71
2023/01/24 22:01:49;;;;;;;13.27;7.87;;;2.20;99.90;;;;;;4935581;29;20395;-71
2023/01/24 22:04:16;;;;;;;16.30;8.50;;;2.20;99.90;;;;;;4935645;29;20326;-71
2023/01/24 22:06:43;;;;;;;16.77;8.50;;;2.20;99.90;;;;;;4935347;29;20299;-71
2023/01/24 22:09:11;;;;;;;15.97;8.50;;;2.10;99.90;;;;;;4936094;29;20248;-71
2023/01/24 22:11:38;;;;;;;16.67;8.60;;;2.20;99.90;;;;;;4938759;29;20595;-71
2023/01/24 22:14:06;;;;;;;20.80;9.93;;;2.20;99.90;;;;;;4938952;29;20276;-71
2023/01/24 22:16:35;;;;;;;18.97;9.47;;;2.20;99.90;;;;;;4939335;29;20236;-71
2023/01/24 22:19:03;;;;;;;17.90;8.50;;;2.40;99.90;;;;;;4939077;29;20294;-71
2023/01/24 22:21:43;;;;;;;18.33;9.83;;;2.70;99.90;;;;;;4939215;29;20212;-71
2023/01/24 22:24:15;;;;;;;15.40;9.13;;;2.50;99.90;;;;;;4938825;29;20311;-70
2023/01/24 22:26:57;;;;;;;17.07;8.40;;;2.30;99.90;;;;;;4938722;29;20571;-71
2023/01/24 22:29:24;;;;;;;18.37;9.07;;;2.50;99.90;;;;;;4939377;29;20303;-71
2023/01/24 22:31:53;;;;;;;17.17;9.30;;;2.40;99.90;;;;;;4938682;29;20291;-71
2023/01/24 22:34:22;;;;;;;19.53;9.50;;;2.40;99.90;;;;;;4938545;29;20283;-71
2023/01/24 22:36:56;;;;;;;19.93;9.20;;;2.50;99.90;;;;;;4938418;29;20295;-71
2023/01/24 22:39:23;;;;;;;18.90;9.73;;;2.50;99.90;;;;;;4938577;29;20232;-71
2023/01/24 22:41:50;;;;;;;16.87;9.23;;;2.60;99.90;;;;;;4938651;29;20299;-71
2023/01/24 22:44:17;;;;;;;19.10;8.57;;;2.30;99.90;;;;;;4938170;29;20323;-71
2023/01/24 22:46:43;;;;;;;19.47;9.03;;;2.40;99.90;;;;;;4938567;29;20243;-71
2023/01/24 22:49:12;;;;;;;14.97;8.90;;;2.40;99.90;;;;;;4938421;29;20213;-71
2023/01/24 22:51:38;;;;;;;16.33;9.57;;;2.40;99.90;;;;;;4938326;29;20303;-71
2023/01/24 22:54:05;;;;;;;18.57;9.60;;;2.40;99.90;;;;;;4938508;29;20224;-71
2023/01/24 22:56:32;;;;;;;17.73;8.90;;;2.50;99.90;;;;;;4938499;29;20209;-71
2023/01/24 22:58:59;;;;;;;20.53;9.57;;;2.50;99.90;;;;;;4938137;29;20723;-71
2023/01/24 23:01:26;;;;;;;17.43;8.17;;;2.50;99.90;;;;;;4938256;29;20678;-71
2023/01/24 23:03:52;;;;;;;17.60;9.47;;;2.70;99.90;;;;;;4938792;29;20260;-71
